POGODA: Poland

Lotnisko: Gdansk-Rebiechowo

METAR KOD: EPGD


METAR: EPGD 240400Z 05007KT CAVOK 18/15 Q1019


BLOK
Pogoda METAR
240400Z
Dzien: 24, Godzina: 04:00 UTC.
05007KT
Wiatr z kierunku 050, o predkosci 13 km/h
CAVOK
Widzialnosc pow. 10 km, brak chmur pon. 1500 m., brak CB, brak opadow, burz i innych
18/15
Temperatura: powietrze 18°C, punkt rosy 15°C . Wilgotnosc wzgledna 83 %
Q1019
Cisnienie: 1019 hPa

Pogoda na innym lotnisku

Pogoda Gdansk-Rebiechowo WEATHER Poland  
Pogoda Katowice WEATHER Poland  
Pogoda Krakow WEATHER Poland  
Pogoda Poznan WEATHER Poland  
Pogoda Rzeszow-Jasionka WEATHER Poland  
Pogoda Szczecin WEATHER Poland  
Pogoda Warszawa-Okecie WEATHER Poland  
Pogoda Wroclaw Ii WEATHER Poland  

Pogoda w inny kraju

Strona startowa

(C) by GREGOR 2007
Ogłoszenia Towarzyskie